createdAt,value
2023-03-06T00:00:06.684Z,21.93
2023-03-06T00:02:34.892Z,21.33
2023-03-06T00:05:03.029Z,24.30
2023-03-06T00:07:31.178Z,25.23
2023-03-06T00:09:59.334Z,23.20
2023-03-06T00:12:27.562Z,23.87
2023-03-06T00:14:55.685Z,25.67
2023-03-06T00:17:28.516Z,25.53
2023-03-06T00:19:56.801Z,23.07
2023-03-06T00:22:24.950Z,25.03
2023-03-06T00:24:54.853Z,24.57
2023-03-06T00:27:26.052Z,25.87
2023-03-06T00:29:56.374Z,27.77
2023-03-06T00:32:25.962Z,22.77
2023-03-06T00:34:54.634Z,28.23
2023-03-06T00:37:22.998Z,23.20
2023-03-06T00:39:51.583Z,27.10
2023-03-06T00:42:19.932Z,23.90
2023-03-06T00:44:48.426Z,25.23
2023-03-06T00:47:17.150Z,22.70
2023-03-06T00:49:47.100Z,24.43
2023-03-06T00:52:15.541Z,23.37
2023-03-06T00:54:43.686Z,22.97
2023-03-06T00:57:11.853Z,24.00
2023-03-06T00:59:40.097Z,26.97
2023-03-06T01:02:08.414Z,26.00
2023-03-06T01:04:36.602Z,23.93
2023-03-06T01:07:06.202Z,22.73
2023-03-06T01:09:34.351Z,22.67
2023-03-06T01:12:02.486Z,23.10
2023-03-06T01:14:31.154Z,22.50
2023-03-06T01:16:59.860Z,24.40
2023-03-06T01:19:28.050Z,23.87
2023-03-06T01:21:56.256Z,25.30
2023-03-06T01:24:26.590Z,23.27
2023-03-06T01:26:54.728Z,24.80
2023-03-06T01:29:22.939Z,26.07
2023-03-06T01:31:51.084Z,21.93
2023-03-06T01:34:19.258Z,25.80
2023-03-06T01:36:47.401Z,22.67
2023-03-06T01:39:15.542Z,24.63
2023-03-06T01:41:45.057Z,21.50
2023-03-06T01:44:14.416Z,23.60
2023-03-06T01:46:42.919Z,20.23
2023-03-06T01:49:14.637Z,24.83
2023-03-06T01:51:45.600Z,24.03
2023-03-06T01:54:14.914Z,23.27
2023-03-06T01:56:46.049Z,26.73
2023-03-06T01:59:14.521Z,22.33
2023-03-06T02:01:42.962Z,24.53
2023-03-06T02:04:12.050Z,24.17
2023-03-06T02:06:43.001Z,22.80
2023-03-06T02:09:11.629Z,23.00
2023-03-06T02:11:43.781Z,19.07
2023-03-06T02:14:14.662Z,21.40
2023-03-06T02:16:43.430Z,24.17
2023-03-06T02:19:20.121Z,20.17
2023-03-06T02:21:48.284Z,23.73
2023-03-06T02:24:25.486Z,24.57
2023-03-06T02:26:55.297Z,21.57
2023-03-06T02:29:24.332Z,22.43
2023-03-06T02:31:52.480Z,21.03
2023-03-06T02:34:39.136Z,26.70
2023-03-06T02:37:09.680Z,21.90
2023-03-06T02:39:40.568Z,24.07
2023-03-06T02:42:10.070Z,26.30
2023-03-06T02:44:38.417Z,25.77
2023-03-06T02:47:07.721Z,26.87
2023-03-06T02:49:35.897Z,25.93
2023-03-06T02:52:04.035Z,23.40
2023-03-06T02:54:32.292Z,26.50
2023-03-06T02:57:00.466Z,26.17
2023-03-06T02:59:30.009Z,25.00
2023-03-06T03:01:58.208Z,27.17
2023-03-06T03:04:26.568Z,27.80
2023-03-06T03:06:54.788Z,29.27
2023-03-06T03:09:23.004Z,30.20
2023-03-06T03:11:51.148Z,28.40
2023-03-06T03:14:19.323Z,28.40
2023-03-06T03:16:48.807Z,31.70
2023-03-06T03:19:17.127Z,33.93
2023-03-06T03:21:45.278Z,28.90
2023-03-06T03:24:13.473Z,30.77
2023-03-06T03:26:41.649Z,30.73
2023-03-06T03:29:10.725Z,30.27
2023-03-06T03:31:38.889Z,29.23
2023-03-06T03:34:08.674Z,30.20
2023-03-06T03:36:36.963Z,34.07
2023-03-06T03:39:05.554Z,33.07
2023-03-06T03:41:34.368Z,30.13
2023-03-06T03:44:02.562Z,33.70
2023-03-06T03:46:30.712Z,31.83
2023-03-06T03:48:58.922Z,30.83
2023-03-06T03:51:28.394Z,29.87
2023-03-06T03:53:58.023Z,33.53
2023-03-06T03:56:26.226Z,35.50
2023-03-06T03:58:54.675Z,30.63
2023-03-06T04:01:22.917Z,30.57
2023-03-06T04:03:51.200Z,33.50
2023-03-06T04:06:19.769Z,32.50
2023-03-06T04:08:49.261Z,33.07
2023-03-06T04:11:17.435Z,29.70
2023-03-06T04:13:45.568Z,33.67
2023-03-06T04:16:13.748Z,33.93
2023-03-06T04:18:41.957Z,33.13
2023-03-06T04:21:10.213Z,32.97
2023-03-06T04:23:38.365Z,33.63
2023-03-06T04:26:08.050Z,29.90
2023-03-06T04:28:36.196Z,34.97
2023-03-06T04:31:04.418Z,31.30
2023-03-06T04:33:32.662Z,41.03
2023-03-06T04:36:00.856Z,31.63
2023-03-06T04:38:29.060Z,33.20
2023-03-06T04:40:57.342Z,36.63
2023-03-06T04:43:27.017Z,32.33
2023-03-06T04:45:55.188Z,35.13
2023-03-06T04:48:23.392Z,32.47
2023-03-06T04:50:51.530Z,36.57
2023-03-06T04:53:21.251Z,38.43
2023-03-06T04:55:49.382Z,32.17
2023-03-06T04:58:17.562Z,31.40
2023-03-06T05:00:47.090Z,33.77
2023-03-06T05:03:15.615Z,32.17
2023-03-06T05:05:43.780Z,39.43
2023-03-06T05:08:15.196Z,36.23
2023-03-06T05:10:43.725Z,34.37
2023-03-06T05:13:12.311Z,33.37
2023-03-06T05:15:41.958Z,33.53
2023-03-06T05:18:11.457Z,31.23
2023-03-06T05:20:39.636Z,37.00
2023-03-06T05:23:07.782Z,38.63
2023-03-06T05:25:35.949Z,38.00
2023-03-06T05:28:04.156Z,36.60
2023-03-06T05:30:32.707Z,35.33
2023-03-06T05:33:00.881Z,34.47
2023-03-06T05:35:30.495Z,38.57
2023-03-06T05:37:58.664Z,37.30
2023-03-06T05:40:27.088Z,41.17
2023-03-06T05:42:55.760Z,38.03
2023-03-06T05:45:23.925Z,39.67
2023-03-06T05:47:52.074Z,40.03
2023-03-06T05:50:20.272Z,34.77
2023-03-06T05:52:49.775Z,38.97
2023-03-06T05:55:19.522Z,39.90
2023-03-06T05:57:47.668Z,38.00
2023-03-06T06:00:16.332Z,43.73
2023-03-06T06:02:44.668Z,38.63
2023-03-06T06:05:13.347Z,38.87
2023-03-06T06:07:41.507Z,41.60
2023-03-06T06:10:12.697Z,41.63
2023-03-06T06:12:40.867Z,40.17
2023-03-06T06:15:09.435Z,41.30
2023-03-06T06:17:37.599Z,37.27
2023-03-06T06:20:06.034Z,43.33
2023-03-06T06:22:37.627Z,44.77
2023-03-06T06:25:06.076Z,40.70
2023-03-06T06:27:35.592Z,38.53
2023-03-06T06:30:03.808Z,41.97
2023-03-06T06:32:32.021Z,40.90
2023-03-06T06:35:00.191Z,43.80
2023-03-06T06:37:28.385Z,37.10
2023-03-06T06:39:56.578Z,38.27
2023-03-06T06:42:38.962Z,44.47
2023-03-06T06:45:10.290Z,38.53
2023-03-06T06:47:41.127Z,41.20
2023-03-06T06:50:10.191Z,40.60
2023-03-06T06:52:38.327Z,39.90
2023-03-06T06:55:06.885Z,38.83
2023-03-06T06:57:35.144Z,44.37
2023-03-06T07:00:03.687Z,38.60
2023-03-06T07:02:33.250Z,39.57
2023-03-06T07:05:04.616Z,41.63
2023-03-06T07:07:33.572Z,40.50
2023-03-06T07:10:01.726Z,43.23
2023-03-06T07:12:32.371Z,40.60
2023-03-06T07:15:00.590Z,41.80
2023-03-06T07:17:28.751Z,44.70
2023-03-06T07:19:59.476Z,45.33
2023-03-06T07:22:30.337Z,46.57
2023-03-06T07:25:00.225Z,46.97
2023-03-06T07:27:28.397Z,49.13
2023-03-06T07:29:56.568Z,45.70
2023-03-06T07:32:24.825Z,43.73
2023-03-06T07:34:56.660Z,45.87
2023-03-06T07:37:31.059Z,50.87
2023-03-06T07:39:59.393Z,42.27
2023-03-06T07:42:29.224Z,46.37
2023-03-06T07:44:57.471Z,41.37
2023-03-06T07:47:25.621Z,45.07
2023-03-06T07:49:56.339Z,41.90
2023-03-06T07:52:24.654Z,38.83
2023-03-06T07:54:54.141Z,40.27
2023-03-06T07:57:22.284Z,40.67
2023-03-06T07:59:50.459Z,43.67
2023-03-06T08:02:18.653Z,41.30
2023-03-06T08:04:46.878Z,43.80
2023-03-06T08:07:15.053Z,43.73
2023-03-06T08:09:43.214Z,41.40
2023-03-06T08:12:13.374Z,35.53
2023-03-06T08:14:42.541Z,42.30
2023-03-06T08:17:10.732Z,39.23
2023-03-06T08:19:38.988Z,38.27
2023-03-06T08:22:07.552Z,37.03
2023-03-06T08:24:36.209Z,38.17
2023-03-06T08:27:04.422Z,40.40
2023-03-06T08:29:33.903Z,38.03
2023-03-06T08:32:02.196Z,36.90
2023-03-06T08:34:30.390Z,37.43
2023-03-06T08:36:58.535Z,37.53
2023-03-06T08:39:26.686Z,36.03
2023-03-06T08:41:54.840Z,38.70
2023-03-06T08:44:23.019Z,37.90
2023-03-06T08:46:52.516Z,39.87
2023-03-06T08:49:20.703Z,37.77
2023-03-06T08:51:48.857Z,35.33
2023-03-06T08:54:17.008Z,39.17
2023-03-06T08:56:45.197Z,40.20
2023-03-06T08:59:13.391Z,35.40
2023-03-06T09:01:43.007Z,38.40
2023-03-06T09:04:12.712Z,39.27
2023-03-06T09:06:42.149Z,42.40
2023-03-06T09:09:10.600Z,40.63
2023-03-06T09:11:38.806Z,36.13
2023-03-06T09:14:07.256Z,38.27
2023-03-06T09:16:35.493Z,36.23
2023-03-06T09:19:03.705Z,39.80
2023-03-06T09:21:33.293Z,37.57
2023-03-06T09:24:01.577Z,35.97
2023-03-06T09:26:43.493Z,33.50
2023-03-06T09:29:13.097Z,36.67
2023-03-06T09:31:41.316Z,33.40
2023-03-06T09:34:09.483Z,36.07
2023-03-06T09:36:54.930Z,29.90
2023-03-06T09:39:24.934Z,35.20
2023-03-06T09:41:53.300Z,38.30
2023-03-06T09:44:22.896Z,33.10
2023-03-06T09:47:01.965Z,36.37
2023-03-06T09:49:39.566Z,36.17
2023-03-06T09:52:15.950Z,34.50
2023-03-06T09:54:45.974Z,35.30
2023-03-06T09:57:19.157Z,34.27
2023-03-06T09:59:49.302Z,33.90
2023-03-06T10:02:20.610Z,33.90
2023-03-06T10:04:50.921Z,33.00
2023-03-06T10:07:23.640Z,32.67
2023-03-06T10:09:53.835Z,32.37
2023-03-06T10:12:25.983Z,29.50
2023-03-06T10:15:00.308Z,29.70
2023-03-06T10:17:30.283Z,30.47
2023-03-06T10:19:58.427Z,31.00
2023-03-06T10:22:30.382Z,30.83
2023-03-06T10:25:02.084Z,28.87
2023-03-06T10:27:36.271Z,29.60
2023-03-06T10:30:08.136Z,30.43
2023-03-06T10:32:48.922Z,32.30
2023-03-06T10:35:19.853Z,26.70
2023-03-06T10:37:49.805Z,26.30
2023-03-06T10:40:18.807Z,27.77
2023-03-06T10:42:46.970Z,26.30
2023-03-06T10:45:15.749Z,29.60
2023-03-06T10:47:44.168Z,29.83
2023-03-06T10:50:23.600Z,25.37
2023-03-06T10:53:01.946Z,30.10
2023-03-06T10:55:31.147Z,29.97
2023-03-06T10:57:59.308Z,28.13
2023-03-06T11:00:29.184Z,25.13
2023-03-06T11:03:21.628Z,26.80
2023-03-06T11:05:59.789Z,27.50
2023-03-06T11:08:29.669Z,30.63
2023-03-06T11:10:59.035Z,26.53
2023-03-06T11:13:28.311Z,28.23
2023-03-06T11:15:57.746Z,28.90
2023-03-06T11:18:34.907Z,30.23
2023-03-06T11:21:04.141Z,24.03
2023-03-06T11:23:39.429Z,23.43
2023-03-06T11:26:16.089Z,26.10
2023-03-06T11:28:47.159Z,26.27
2023-03-06T11:31:18.033Z,23.60
2023-03-06T11:33:50.702Z,22.83
2023-03-06T11:36:23.520Z,26.43
2023-03-06T11:38:54.583Z,20.70
2023-03-06T11:41:27.149Z,21.80
2023-03-06T11:43:59.089Z,24.37
2023-03-06T11:46:30.026Z,23.60
2023-03-06T11:49:01.038Z,25.97
2023-03-06T11:51:32.022Z,21.30
2023-03-06T11:54:02.238Z,21.37
2023-03-06T11:56:34.154Z,24.00
2023-03-06T11:59:13.732Z,23.97
2023-03-06T12:01:44.008Z,25.40
2023-03-06T12:04:29.935Z,27.00
2023-03-06T12:07:03.166Z,22.67
2023-03-06T12:09:38.748Z,23.03
2023-03-06T12:15:00.520Z,26.93
2023-03-06T12:17:34.392Z,23.97
2023-03-06T12:20:13.614Z,28.10
2023-03-06T12:22:53.391Z,27.63
2023-03-06T12:25:34.793Z,27.07
2023-03-06T12:28:14.789Z,26.37
2023-03-06T12:30:53.660Z,25.43
2023-03-06T12:33:27.873Z,24.70
2023-03-06T12:35:59.500Z,25.17
2023-03-06T12:38:57.802Z,27.03
2023-03-06T12:41:35.349Z,21.37
2023-03-06T12:44:12.089Z,22.20
2023-03-06T12:46:41.585Z,24.13
2023-03-06T12:49:15.663Z,21.97
2023-03-06T12:51:46.387Z,28.20
2023-03-06T12:54:15.842Z,21.50
2023-03-06T12:56:45.431Z,22.30
2023-03-06T12:59:28.450Z,23.00
2023-03-06T13:02:19.025Z,23.77
2023-03-06T13:04:55.076Z,24.73
2023-03-06T13:07:39.062Z,24.13
2023-03-06T13:10:12.892Z,25.07
2023-03-06T13:12:49.821Z,20.00
2023-03-06T13:15:29.332Z,25.60
2023-03-06T13:17:57.550Z,23.43
2023-03-06T13:20:29.796Z,22.93
2023-03-06T13:22:58.442Z,17.53
2023-03-06T13:25:38.370Z,20.67
2023-03-06T13:28:24.630Z,20.47
2023-03-06T13:30:53.358Z,20.13
2023-03-06T13:33:40.200Z,21.10
2023-03-06T13:36:22.197Z,25.23
2023-03-06T13:39:03.550Z,22.03
2023-03-06T13:41:44.905Z,26.87
2023-03-06T13:44:31.647Z,20.70
2023-03-06T13:47:02.146Z,20.37
2023-03-06T13:49:31.021Z,21.10
2023-03-06T13:52:07.980Z,20.50
2023-03-06T13:54:44.445Z,23.37
2023-03-06T13:57:21.484Z,21.00
2023-03-06T14:00:09.447Z,19.93
2023-03-06T14:02:51.398Z,20.87
2023-03-06T14:05:20.297Z,21.20
2023-03-06T14:07:49.156Z,24.43
2023-03-06T14:10:21.642Z,21.67
2023-03-06T14:13:03.402Z,21.20
2023-03-06T14:15:37.956Z,23.83
2023-03-06T14:18:09.485Z,21.97
2023-03-06T14:20:45.798Z,18.70
2023-03-06T14:23:17.931Z,23.20
2023-03-06T14:25:47.313Z,20.27
2023-03-06T14:28:25.382Z,21.00
2023-03-06T14:30:54.572Z,19.33
2023-03-06T14:33:31.462Z,22.33
2023-03-06T14:36:01.589Z,21.47
2023-03-06T14:38:31.603Z,22.60
2023-03-06T14:40:59.782Z,20.67
2023-03-06T14:43:28.334Z,19.83
2023-03-06T14:45:58.036Z,21.67
2023-03-06T14:48:27.513Z,21.93
2023-03-06T14:50:58.054Z,22.57
2023-03-06T14:53:28.546Z,21.13
2023-03-06T14:55:57.901Z,25.60
2023-03-06T14:58:31.792Z,22.10
2023-03-06T15:01:02.020Z,22.43
2023-03-06T15:03:35.887Z,23.10
2023-03-06T15:06:06.472Z,19.60
2023-03-06T15:08:36.237Z,21.53
2023-03-06T15:11:05.446Z,23.77
2023-03-06T15:13:34.678Z,19.97
2023-03-06T15:16:04.433Z,19.37
2023-03-06T15:18:35.434Z,18.60
2023-03-06T15:21:12.464Z,23.13
2023-03-06T15:23:42.143Z,20.93
2023-03-06T15:26:22.146Z,23.80
2023-03-06T15:29:03.390Z,21.50
2023-03-06T15:31:37.347Z,20.73
2023-03-06T15:34:23.274Z,21.70
2023-03-06T15:36:54.186Z,21.97
2023-03-06T15:39:33.172Z,20.67
2023-03-06T15:42:03.590Z,14.77
2023-03-06T15:44:33.410Z,17.93
2023-03-06T15:47:09.409Z,17.83
2023-03-06T15:49:38.500Z,17.37
2023-03-06T15:52:08.526Z,16.00
2023-03-06T15:54:37.014Z,17.57
2023-03-06T15:57:05.925Z,14.67
2023-03-06T15:59:36.085Z,16.90
2023-03-06T16:02:05.914Z,19.50
2023-03-06T16:04:34.097Z,19.67
2023-03-06T16:07:02.334Z,19.50
2023-03-06T16:09:32.630Z,18.13
2023-03-06T16:12:01.201Z,16.53
2023-03-06T16:14:29.422Z,19.00
2023-03-06T16:16:59.471Z,21.73
2023-03-06T16:19:28.196Z,19.07
2023-03-06T16:21:56.463Z,16.20
2023-03-06T16:24:26.060Z,19.03
2023-03-06T16:26:55.994Z,16.10
2023-03-06T16:29:25.857Z,18.90
2023-03-06T16:31:54.999Z,17.77
2023-03-06T16:34:23.164Z,17.97
2023-03-06T16:36:51.488Z,20.27
2023-03-06T16:39:20.374Z,17.90
2023-03-06T16:41:49.272Z,19.57
2023-03-06T16:44:18.837Z,18.70
2023-03-06T16:46:47.834Z,18.10
2023-03-06T16:49:17.877Z,18.37
2023-03-06T16:51:46.191Z,15.67
2023-03-06T16:54:14.379Z,20.00
2023-03-06T16:56:42.922Z,18.70
2023-03-06T16:59:11.138Z,21.40
2023-03-06T17:01:42.623Z,20.43
2023-03-06T17:04:11.101Z,19.07
2023-03-06T17:06:39.635Z,21.10
2023-03-06T17:09:08.141Z,19.00
2023-03-06T17:11:38.391Z,21.07
2023-03-06T17:14:07.125Z,19.57
2023-03-06T17:16:36.895Z,21.07
2023-03-06T17:19:06.510Z,20.13
2023-03-06T17:21:35.389Z,23.10
2023-03-06T17:24:04.083Z,25.77
2023-03-06T17:26:32.684Z,19.13
2023-03-06T17:29:00.908Z,23.67
2023-03-06T17:31:29.596Z,25.03
2023-03-06T17:34:00.374Z,20.77
2023-03-06T17:36:30.434Z,22.70
2023-03-06T17:38:59.193Z,20.77
2023-03-06T17:41:27.368Z,22.70
2023-03-06T17:43:57.745Z,23.53
2023-03-06T17:46:26.277Z,27.43
2023-03-06T17:48:54.653Z,19.87
2023-03-06T17:51:22.804Z,20.33
2023-03-06T17:53:53.180Z,19.00
2023-03-06T17:56:21.317Z,20.73
2023-03-06T17:58:49.472Z,23.77
2023-03-06T18:01:18.756Z,19.27
2023-03-06T18:03:48.110Z,23.03
2023-03-06T18:06:16.599Z,23.87
2023-03-06T18:08:45.717Z,22.03
2023-03-06T18:11:15.537Z,21.57
2023-03-06T18:13:44.860Z,22.60
2023-03-06T18:16:13.988Z,21.80
2023-03-06T18:18:42.178Z,24.80
2023-03-06T18:21:11.466Z,22.80
2023-03-06T18:23:41.146Z,23.97
2023-03-06T18:26:11.523Z,25.10
2023-03-06T18:28:42.462Z,21.73
2023-03-06T18:31:16.174Z,28.47
2023-03-06T18:33:44.356Z,24.37
2023-03-06T18:36:12.506Z,23.57
2023-03-06T18:38:42.830Z,28.77
2023-03-06T18:41:11.417Z,22.67
2023-03-06T18:43:41.161Z,24.60
2023-03-06T18:46:09.438Z,26.80
2023-03-06T18:48:38.041Z,24.80
2023-03-06T18:51:06.706Z,26.20
2023-03-06T18:53:34.874Z,25.60
2023-03-06T18:56:03.429Z,26.00
2023-03-06T18:58:31.609Z,28.93
2023-03-06T19:01:02.138Z,25.10
2023-03-06T19:03:30.388Z,27.43
2023-03-06T19:05:59.259Z,24.53
2023-03-06T19:08:27.478Z,21.07
2023-03-06T19:10:56.289Z,22.57
2023-03-06T19:13:24.460Z,27.67
2023-03-06T19:15:56.833Z,23.10
2023-03-06T19:18:26.795Z,25.87
2023-03-06T19:20:56.394Z,27.63
2023-03-06T19:23:24.566Z,25.93
2023-03-06T19:25:58.636Z,24.97
2023-03-06T19:28:27.183Z,23.20
2023-03-06T19:30:55.369Z,25.93
2023-03-06T19:33:23.547Z,29.97
2023-03-06T19:35:53.163Z,25.30
2023-03-06T19:38:21.498Z,29.10
2023-03-06T19:40:50.420Z,28.10
2023-03-06T19:43:18.589Z,27.00
2023-03-06T19:45:46.794Z,27.77
2023-03-06T19:48:15.348Z,27.00
2023-03-06T19:50:43.761Z,26.80
2023-03-06T19:53:14.079Z,25.53
2023-03-06T19:55:42.512Z,31.67
2023-03-06T19:58:11.448Z,26.63
2023-03-06T20:00:41.387Z,29.97
2023-03-06T20:03:09.549Z,27.47
2023-03-06T20:05:37.703Z,28.30
2023-03-06T20:08:06.048Z,28.50
2023-03-06T20:10:37.752Z,33.13
2023-03-06T20:13:05.885Z,27.53
2023-03-06T20:15:36.619Z,26.93
2023-03-06T20:18:05.819Z,27.37
2023-03-06T20:20:33.972Z,30.87
2023-03-06T20:23:04.473Z,29.90
2023-03-06T20:25:32.647Z,30.23
2023-03-06T20:28:02.160Z,30.73
2023-03-06T20:30:37.840Z,28.63
2023-03-06T20:33:06.666Z,37.47
2023-03-06T20:35:34.859Z,33.00
2023-03-06T20:38:03.042Z,31.63
2023-03-06T20:40:31.216Z,29.77
2023-03-06T20:42:59.406Z,33.07
2023-03-06T20:45:28.963Z,30.47
2023-03-06T20:47:57.144Z,30.50
2023-03-06T20:50:25.530Z,32.03
2023-03-06T20:52:55.129Z,30.53
2023-03-06T20:55:23.380Z,31.17
2023-03-06T20:57:51.736Z,29.47
2023-03-06T21:00:20.963Z,33.83
2023-03-06T21:02:50.505Z,32.37
2023-03-06T21:05:18.681Z,29.10
2023-03-06T21:07:46.850Z,30.67
2023-03-06T21:10:15.452Z,33.33
2023-03-06T21:12:43.582Z,29.63
2023-03-06T21:15:12.943Z,29.77
2023-03-06T21:17:41.411Z,30.83
2023-03-06T21:20:11.786Z,28.20
2023-03-06T21:22:39.966Z,26.53
2023-03-06T21:25:08.205Z,29.80
2023-03-06T21:27:36.345Z,31.97
2023-03-06T21:30:04.807Z,30.73
2023-03-06T21:32:32.999Z,28.70
2023-03-06T21:35:01.224Z,28.67
2023-03-06T21:37:30.725Z,29.27
2023-03-06T21:40:00.304Z,27.57
2023-03-06T21:42:29.288Z,27.30
2023-03-06T21:44:57.441Z,29.87
2023-03-06T21:47:25.616Z,27.93
2023-03-06T21:49:53.770Z,28.27
2023-03-06T21:52:21.941Z,28.00
2023-03-06T21:54:51.591Z,28.73
2023-03-06T21:57:19.751Z,28.50
2023-03-06T21:59:48.002Z,26.70
2023-03-06T22:02:16.231Z,28.13
2023-03-06T22:04:44.785Z,29.50
2023-03-06T22:07:12.914Z,30.90
2023-03-06T22:09:41.053Z,30.87
2023-03-06T22:12:10.798Z,30.23
2023-03-06T22:14:39.047Z,26.63
2023-03-06T22:17:07.198Z,29.20
2023-03-06T22:19:35.521Z,31.50
2023-03-06T22:22:03.930Z,29.20
2023-03-06T22:24:32.306Z,27.87
2023-03-06T22:27:00.488Z,27.17
2023-03-06T22:29:29.999Z,26.70
2023-03-06T22:31:58.297Z,25.07
2023-03-06T22:34:27.540Z,27.23
2023-03-06T22:36:55.698Z,28.53
2023-03-06T22:39:23.853Z,23.77
2023-03-06T22:41:52.173Z,22.13
2023-03-06T22:44:21.043Z,26.90
2023-03-06T22:46:51.659Z,25.80
2023-03-06T22:49:19.838Z,18.27
2023-03-06T22:51:47.995Z,21.00
2023-03-06T22:54:16.166Z,21.17
2023-03-06T22:56:44.339Z,22.37
2023-03-06T22:59:12.484Z,21.87
2023-03-06T23:01:40.688Z,21.70
2023-03-06T23:04:11.576Z,20.77
2023-03-06T23:06:40.918Z,21.07
2023-03-06T23:09:09.969Z,19.20
2023-03-06T23:11:38.155Z,20.23
2023-03-06T23:14:06.355Z,23.13
2023-03-06T23:16:34.975Z,19.43
2023-03-06T23:19:04.366Z,20.23
2023-03-06T23:21:34.577Z,18.47
2023-03-06T23:24:03.087Z,21.10
2023-03-06T23:26:31.655Z,19.73
2023-03-06T23:28:59.802Z,18.77
2023-03-06T23:31:30.595Z,20.77
2023-03-06T23:33:59.097Z,18.90
2023-03-06T23:36:27.321Z,18.63
2023-03-06T23:38:57.079Z,17.77
2023-03-06T23:41:25.585Z,18.20
2023-03-06T23:43:55.237Z,18.20
2023-03-06T23:46:23.889Z,19.23
2023-03-06T23:48:52.678Z,17.70
2023-03-06T23:51:22.223Z,18.20
2023-03-06T23:53:54.745Z,17.10
2023-03-06T23:56:24.301Z,16.37
2023-03-06T23:58:52.471Z,15.43
